createdAt,value
2023-11-23T00:00:12.793Z,3.00
2023-11-23T00:01:15.680Z,3.00
2023-11-23T00:02:19.113Z,3.00
2023-11-23T00:03:21.911Z,3.00
2023-11-23T00:04:24.786Z,3.00
2023-11-23T00:05:28.692Z,3.00
2023-11-23T00:06:31.426Z,3.00
2023-11-23T00:07:34.444Z,3.00
2023-11-23T00:08:37.215Z,3.00
2023-11-23T00:09:40.782Z,3.00
2023-11-23T00:10:43.612Z,3.00
2023-11-23T00:11:46.381Z,3.00
2023-11-23T00:12:49.119Z,3.00
2023-11-23T00:13:53.172Z,3.00
2023-11-23T00:14:55.961Z,3.00
2023-11-23T00:15:58.687Z,3.00
2023-11-23T00:17:01.496Z,3.00
2023-11-23T00:18:04.700Z,3.00
2023-11-23T00:19:07.481Z,3.00
2023-11-23T00:20:11.653Z,3.00
2023-11-23T00:21:14.435Z,3.00
2023-11-23T00:22:17.799Z,3.00
2023-11-23T00:23:20.574Z,3.00
2023-11-23T00:24:23.332Z,3.00
2023-11-23T00:25:26.136Z,3.00
2023-11-23T00:26:28.864Z,3.00
2023-11-23T00:27:35.558Z,3.00
2023-11-23T00:28:38.372Z,3.00
2023-11-23T00:29:41.103Z,3.00
2023-11-23T00:30:43.894Z,3.00
2023-11-23T00:31:46.684Z,3.00
2023-11-23T00:32:49.493Z,3.00
2023-11-23T00:33:52.370Z,3.00
2023-11-23T00:34:55.219Z,3.00
2023-11-23T00:35:58.028Z,3.00
2023-11-23T00:37:00.816Z,3.00
2023-11-23T00:38:04.845Z,3.00
2023-11-23T00:39:10.749Z,3.00
2023-11-23T00:40:16.388Z,3.00
2023-11-23T00:41:19.165Z,3.00
2023-11-23T00:42:21.910Z,3.00
2023-11-23T00:43:25.689Z,3.00
2023-11-23T00:44:28.466Z,3.00
2023-11-23T00:45:31.417Z,3.00
2023-11-23T00:46:36.848Z,3.00
2023-11-23T00:47:39.738Z,3.00
2023-11-23T00:48:42.652Z,3.00
2023-11-23T00:49:46.133Z,3.00
2023-11-23T00:50:48.999Z,3.00
2023-11-23T00:51:51.757Z,3.00
2023-11-23T00:52:54.506Z,3.00
2023-11-23T00:53:57.573Z,3.00
2023-11-23T00:55:00.494Z,3.00
2023-11-23T00:56:04.487Z,3.00
2023-11-23T00:57:07.997Z,3.00
2023-11-23T00:58:10.784Z,3.00
2023-11-23T00:59:13.511Z,3.00
2023-11-23T01:00:19.559Z,3.00
2023-11-23T01:01:22.456Z,3.00
2023-11-23T01:02:25.392Z,3.00
2023-11-23T01:03:28.747Z,3.00
2023-11-23T01:04:31.555Z,3.00
2023-11-23T01:05:35.755Z,3.00
2023-11-23T01:06:38.489Z,3.00
2023-11-23T01:07:41.237Z,3.00
2023-11-23T01:08:45.170Z,3.00
2023-11-23T01:09:47.921Z,3.00
2023-11-23T01:10:50.693Z,3.00
2023-11-23T01:11:53.474Z,3.00
2023-11-23T01:12:56.238Z,3.00
2023-11-23T01:13:59.272Z,3.00
2023-11-23T01:15:03.371Z,3.00
2023-11-23T01:16:06.327Z,3.00
2023-11-23T01:17:09.059Z,3.00
2023-11-23T01:18:11.825Z,3.00
2023-11-23T01:19:14.655Z,3.00
2023-11-23T01:20:17.385Z,3.00
2023-11-23T01:21:20.125Z,3.00
2023-11-23T01:22:22.861Z,3.33
2023-11-23T01:23:27.052Z,4.00
2023-11-23T01:24:29.797Z,4.00
2023-11-23T01:25:32.817Z,4.00
2023-11-23T01:26:35.758Z,4.00
2023-11-23T01:27:39.106Z,4.00
2023-11-23T01:28:41.994Z,4.00
2023-11-23T01:29:44.785Z,4.00
2023-11-23T01:30:47.761Z,4.00
2023-11-23T01:31:50.515Z,4.00
2023-11-23T01:32:54.223Z,4.00
2023-11-23T01:33:57.334Z,4.00
2023-11-23T01:35:00.273Z,4.00
2023-11-23T01:36:03.208Z,4.00
2023-11-23T01:37:05.991Z,4.00
2023-11-23T01:38:08.750Z,4.00
2023-11-23T01:39:12.900Z,4.00
2023-11-23T01:40:16.653Z,4.00
2023-11-23T01:41:19.396Z,4.00
2023-11-23T01:42:22.156Z,4.00
2023-11-23T01:43:24.928Z,4.00
2023-11-23T01:44:28.226Z,4.00
2023-11-23T01:45:30.992Z,4.00
2023-11-23T01:46:33.933Z,4.00
2023-11-23T01:47:41.028Z,4.00
2023-11-23T01:48:45.145Z,4.00
2023-11-23T01:49:50.328Z,4.00
2023-11-23T01:50:55.048Z,4.00
2023-11-23T01:51:57.899Z,4.00
2023-11-23T01:53:02.052Z,4.00
2023-11-23T01:54:04.974Z,4.00
2023-11-23T01:55:08.518Z,4.00
2023-11-23T01:56:13.052Z,4.00
2023-11-23T01:57:17.153Z,4.00
2023-11-23T01:58:21.710Z,4.00
2023-11-23T01:59:25.222Z,4.00
2023-11-23T02:00:28.790Z,4.00
2023-11-23T02:01:31.863Z,4.00
2023-11-23T02:02:34.673Z,4.00
2023-11-23T02:03:40.222Z,4.00
2023-11-23T02:04:43.018Z,4.00
2023-11-23T02:05:45.973Z,4.00
2023-11-23T02:06:48.730Z,4.00
2023-11-23T02:07:51.498Z,4.00
2023-11-23T02:08:54.497Z,4.00
2023-11-23T02:09:57.334Z,4.00
2023-11-23T02:11:01.542Z,4.00
2023-11-23T02:12:07.614Z,4.00
2023-11-23T02:13:10.517Z,4.00
2023-11-23T02:14:13.544Z,4.00
2023-11-23T02:15:16.330Z,4.00
2023-11-23T02:16:19.121Z,4.00
2023-11-23T02:17:22.870Z,4.00
2023-11-23T02:18:26.609Z,4.00
2023-11-23T02:19:29.441Z,4.00
2023-11-23T02:20:32.924Z,4.00
2023-11-23T02:21:36.324Z,4.00
2023-11-23T02:22:39.506Z,4.00
2023-11-23T02:23:42.298Z,4.00
2023-11-23T02:24:45.519Z,4.00
2023-11-23T02:25:48.284Z,4.00
2023-11-23T02:26:51.029Z,4.00
2023-11-23T02:27:54.304Z,4.00
2023-11-23T02:28:57.032Z,4.00
2023-11-23T02:29:59.839Z,4.00
2023-11-23T02:31:03.581Z,4.00
2023-11-23T02:32:07.405Z,4.00
2023-11-23T02:33:10.666Z,4.00
2023-11-23T02:34:13.460Z,4.00
2023-11-23T02:35:16.210Z,4.00
2023-11-23T02:36:19.267Z,4.00
2023-11-23T02:37:22.040Z,4.00
2023-11-23T02:38:24.790Z,4.00
2023-11-23T02:39:27.823Z,4.00
2023-11-23T02:40:30.566Z,4.00
2023-11-23T02:41:33.307Z,4.00
2023-11-23T02:42:36.203Z,3.17
2023-11-23T02:43:38.931Z,3.00
2023-11-23T02:44:41.691Z,3.00
2023-11-23T02:45:44.666Z,3.00
2023-11-23T02:46:47.471Z,3.00
2023-11-23T02:47:50.837Z,3.00
2023-11-23T02:48:53.790Z,3.00
2023-11-23T02:49:56.571Z,3.00
2023-11-23T02:50:59.405Z,3.00
2023-11-23T02:52:02.712Z,3.00
2023-11-23T02:53:06.115Z,3.00
2023-11-23T02:54:08.927Z,3.00
2023-11-23T02:55:12.600Z,3.00
2023-11-23T02:56:16.652Z,3.00
2023-11-23T02:57:19.450Z,3.00
2023-11-23T02:58:23.058Z,3.00
2023-11-23T02:59:25.797Z,3.00
2023-11-23T03:00:28.562Z,3.00
2023-11-23T03:01:33.494Z,3.00
2023-11-23T03:02:36.402Z,3.00
2023-11-23T03:03:39.900Z,3.00
2023-11-23T03:04:43.019Z,3.00
2023-11-23T03:05:45.840Z,3.00
2023-11-23T03:06:48.696Z,3.00
2023-11-23T03:07:51.445Z,3.00
2023-11-23T03:08:54.646Z,3.50
2023-11-23T03:09:57.397Z,4.00
2023-11-23T03:11:00.216Z,4.00
2023-11-23T03:12:03.070Z,4.00
2023-11-23T03:13:07.357Z,4.00
2023-11-23T03:14:10.090Z,4.00
2023-11-23T03:15:12.950Z,4.00
2023-11-23T03:16:15.904Z,4.00
2023-11-23T03:17:20.314Z,4.00
2023-11-23T03:18:23.265Z,4.00
2023-11-23T03:19:26.073Z,3.17
2023-11-23T03:20:28.836Z,3.00
2023-11-23T03:21:31.663Z,3.00
2023-11-23T03:22:34.449Z,3.00
2023-11-23T03:23:37.401Z,3.00
2023-11-23T03:24:40.500Z,3.00
2023-11-23T03:25:43.247Z,3.33
2023-11-23T03:26:46.774Z,4.00
2023-11-23T03:27:49.583Z,4.00
2023-11-23T03:28:52.425Z,4.00
2023-11-23T03:29:55.276Z,4.00
2023-11-23T03:30:58.255Z,4.00
2023-11-23T03:32:00.969Z,4.00
2023-11-23T03:33:04.042Z,4.00
2023-11-23T03:34:07.159Z,4.00
2023-11-23T03:35:10.994Z,4.00
2023-11-23T03:36:13.786Z,4.00
2023-11-23T03:37:17.247Z,4.83
2023-11-23T03:38:19.991Z,5.00
2023-11-23T03:39:22.920Z,5.00
2023-11-23T03:40:25.695Z,5.00
2023-11-23T03:41:28.420Z,5.00
2023-11-23T03:42:31.170Z,5.00
2023-11-23T03:43:33.910Z,5.00
2023-11-23T03:44:36.654Z,5.00
2023-11-23T03:45:39.443Z,5.00
2023-11-23T03:46:42.177Z,5.00
2023-11-23T03:47:44.978Z,5.00
2023-11-23T03:48:47.803Z,5.00
2023-11-23T03:49:52.003Z,5.00
2023-11-23T03:50:54.788Z,5.00
2023-11-23T03:51:58.637Z,5.00
2023-11-23T03:53:01.740Z,5.00
2023-11-23T03:54:04.720Z,5.00
2023-11-23T03:55:07.918Z,5.00
2023-11-23T03:56:16.637Z,5.00
2023-11-23T03:57:20.174Z,5.00
2023-11-23T03:58:22.939Z,5.00
2023-11-23T03:59:25.955Z,5.00
2023-11-23T04:00:29.208Z,5.00
2023-11-23T04:01:32.677Z,5.00
2023-11-23T04:02:35.496Z,5.00
2023-11-23T04:03:42.193Z,5.00
2023-11-23T04:04:44.945Z,5.00
2023-11-23T04:05:47.816Z,5.00
2023-11-23T04:06:50.588Z,5.00
2023-11-23T04:07:53.334Z,5.00
2023-11-23T04:08:56.149Z,5.00
2023-11-23T04:09:59.258Z,5.00
2023-11-23T04:11:01.988Z,5.00
2023-11-23T04:12:05.593Z,5.00
2023-11-23T04:13:08.433Z,4.33
2023-11-23T04:14:11.296Z,4.00
2023-11-23T04:15:14.161Z,4.00
2023-11-23T04:16:17.051Z,4.00
2023-11-23T04:17:19.816Z,4.00
2023-11-23T04:18:22.620Z,4.00
2023-11-23T04:19:25.399Z,4.00
2023-11-23T04:20:30.837Z,4.00
2023-11-23T04:21:34.370Z,4.00
2023-11-23T04:22:37.606Z,4.00
2023-11-23T04:23:40.921Z,4.00
2023-11-23T04:24:43.651Z,4.00
2023-11-23T04:25:46.444Z,4.00
2023-11-23T04:26:49.213Z,4.00
2023-11-23T04:27:51.979Z,4.00
2023-11-23T04:28:54.929Z,4.00
2023-11-23T04:29:57.689Z,4.00
2023-11-23T04:31:00.437Z,4.00
2023-11-23T04:32:03.258Z,4.00
2023-11-23T04:33:06.069Z,4.00
2023-11-23T04:34:08.973Z,4.00
2023-11-23T04:35:12.342Z,4.00
2023-11-23T04:36:15.115Z,4.00
2023-11-23T04:37:18.781Z,4.00
2023-11-23T04:38:21.511Z,4.00
2023-11-23T04:39:24.283Z,4.00
2023-11-23T04:40:27.049Z,4.00
2023-11-23T04:41:29.773Z,4.00
2023-11-23T04:42:32.532Z,4.00
2023-11-23T04:43:35.351Z,4.00
2023-11-23T04:44:38.151Z,4.00
2023-11-23T04:45:42.305Z,4.00
2023-11-23T04:46:45.175Z,4.00
2023-11-23T04:47:48.054Z,4.00
2023-11-23T04:48:50.835Z,4.00
2023-11-23T04:49:54.133Z,4.00
2023-11-23T04:50:56.961Z,4.00
2023-11-23T04:51:59.731Z,4.00
2023-11-23T04:53:02.700Z,4.00
2023-11-23T04:54:05.818Z,4.00
2023-11-23T04:55:08.927Z,4.00
2023-11-23T04:56:12.366Z,4.00
2023-11-23T04:57:15.220Z,4.00
2023-11-23T04:58:17.974Z,4.00
2023-11-23T04:59:21.756Z,4.00
2023-11-23T05:00:26.702Z,4.00
2023-11-23T05:01:29.895Z,4.00
2023-11-23T05:02:51.374Z,4.00
2023-11-23T05:03:54.581Z,4.00
2023-11-23T05:04:57.411Z,4.00
2023-11-23T05:06:00.291Z,4.00
2023-11-23T05:07:03.081Z,4.00
2023-11-23T05:08:05.816Z,4.00
2023-11-23T05:09:08.568Z,4.00
2023-11-23T05:10:11.394Z,4.00
2023-11-23T05:11:14.153Z,4.00
2023-11-23T05:12:18.773Z,4.00
2023-11-23T05:13:21.555Z,4.00
2023-11-23T05:14:24.399Z,4.00
2023-11-23T05:15:27.251Z,4.00
2023-11-23T05:16:30.039Z,4.00
2023-11-23T05:17:33.058Z,4.00
2023-11-23T05:18:35.976Z,4.00
2023-11-23T05:19:42.829Z,4.00
2023-11-23T05:20:46.138Z,4.00
2023-11-23T05:21:49.059Z,4.00
2023-11-23T05:22:52.399Z,4.00
2023-11-23T05:23:55.165Z,4.00
2023-11-23T05:24:57.922Z,4.00
2023-11-23T05:26:00.780Z,4.00
2023-11-23T05:27:03.569Z,4.00
2023-11-23T05:28:07.393Z,4.00
2023-11-23T05:29:10.174Z,4.00
2023-11-23T05:30:13.245Z,4.00
2023-11-23T05:31:16.197Z,4.00
2023-11-23T05:32:19.671Z,4.00
2023-11-23T05:33:25.511Z,4.00
2023-11-23T05:34:28.593Z,4.00
2023-11-23T05:35:32.238Z,4.00
2023-11-23T05:36:34.973Z,4.00
2023-11-23T05:37:37.722Z,4.00
2023-11-23T05:38:40.461Z,4.00
2023-11-23T05:39:44.497Z,4.00
2023-11-23T05:40:47.630Z,4.00
2023-11-23T05:41:50.666Z,4.00
2023-11-23T05:42:58.265Z,4.00
2023-11-23T05:44:07.544Z,4.00
2023-11-23T05:45:10.587Z,4.00
2023-11-23T05:46:14.853Z,4.00
2023-11-23T05:47:17.925Z,4.00
2023-11-23T05:48:20.748Z,4.00
2023-11-23T05:49:23.720Z,4.00
2023-11-23T05:50:26.463Z,4.00
2023-11-23T05:51:32.336Z,4.00
2023-11-23T05:52:35.525Z,4.00
2023-11-23T05:53:38.288Z,4.00
2023-11-23T05:54:41.036Z,4.00
2023-11-23T05:55:43.791Z,4.00
2023-11-23T05:56:47.084Z,4.00
2023-11-23T05:57:49.894Z,4.00
2023-11-23T05:58:52.640Z,4.00
2023-11-23T05:59:55.932Z,4.00
2023-11-23T06:01:07.188Z,4.00
2023-11-23T06:02:12.915Z,4.00
2023-11-23T06:03:15.808Z,4.00
2023-11-23T06:04:18.758Z,4.00
2023-11-23T06:05:21.752Z,4.00
2023-11-23T06:06:24.938Z,4.00
2023-11-23T06:07:27.686Z,4.00
2023-11-23T06:08:30.455Z,4.00
2023-11-23T06:09:33.396Z,4.00
2023-11-23T06:10:36.137Z,4.00
2023-11-23T06:11:38.887Z,4.00
2023-11-23T06:12:42.180Z,4.00
2023-11-23T06:13:47.120Z,4.00
2023-11-23T06:14:49.946Z,4.00
2023-11-23T06:15:52.765Z,4.00
2023-11-23T06:16:55.525Z,4.00
2023-11-23T06:18:07.591Z,4.00
2023-11-23T06:19:17.141Z,4.00
2023-11-23T06:20:20.082Z,4.00
2023-11-23T06:21:22.973Z,4.00
2023-11-23T06:22:25.782Z,4.00
2023-11-23T06:23:29.854Z,4.00
2023-11-23T06:24:32.624Z,4.00
2023-11-23T06:25:35.362Z,4.00
2023-11-23T06:26:38.110Z,4.00
2023-11-23T06:27:40.857Z,4.00
2023-11-23T06:28:43.957Z,4.00
2023-11-23T06:29:46.774Z,4.00
2023-11-23T06:30:49.509Z,4.00
2023-11-23T06:31:52.424Z,4.00
2023-11-23T06:32:55.233Z,4.00
2023-11-23T06:33:58.311Z,4.00
2023-11-23T06:35:01.083Z,4.00
2023-11-23T06:36:04.087Z,4.00
2023-11-23T06:37:06.855Z,4.00
2023-11-23T06:38:09.805Z,4.83
2023-11-23T06:39:12.619Z,5.00
2023-11-23T06:40:15.609Z,5.00
2023-11-23T06:41:27.045Z,5.00
2023-11-23T06:42:29.836Z,5.00
2023-11-23T06:43:32.617Z,5.00
2023-11-23T06:44:35.355Z,5.00
2023-11-23T06:45:38.601Z,5.00
2023-11-23T06:46:41.359Z,5.00
2023-11-23T06:47:44.306Z,5.00
2023-11-23T06:48:47.543Z,5.00
2023-11-23T06:49:50.545Z,5.00
2023-11-23T06:50:53.288Z,5.00
2023-11-23T06:51:56.376Z,5.00
2023-11-23T06:52:59.218Z,4.17
2023-11-23T06:54:02.019Z,4.17
2023-11-23T06:55:06.890Z,5.00
2023-11-23T06:56:13.836Z,5.00
2023-11-23T06:57:16.657Z,5.00
2023-11-23T06:58:19.400Z,6.00
2023-11-23T06:59:22.471Z,6.00
2023-11-23T07:00:25.471Z,6.00
2023-11-23T07:01:28.402Z,6.00
2023-11-23T07:02:31.301Z,6.00
2023-11-23T07:03:34.950Z,5.33
2023-11-23T07:04:38.576Z,5.00
2023-11-23T07:05:41.374Z,5.00
2023-11-23T07:06:44.097Z,5.00
2023-11-23T07:07:49.755Z,5.00
2023-11-23T07:08:52.666Z,5.00
2023-11-23T07:09:55.933Z,5.00
2023-11-23T07:10:58.788Z,5.00
2023-11-23T07:12:01.595Z,5.00
2023-11-23T07:13:04.496Z,4.33
2023-11-23T07:14:07.609Z,4.00
2023-11-23T07:15:11.356Z,4.00
2023-11-23T07:16:14.351Z,4.00
2023-11-23T07:17:17.147Z,4.00
2023-11-23T07:18:20.332Z,4.00
2023-11-23T07:19:23.760Z,4.00
2023-11-23T07:20:29.671Z,4.00
2023-11-23T07:21:32.487Z,4.00
2023-11-23T07:22:35.301Z,4.00
2023-11-23T07:23:38.063Z,4.00
2023-11-23T07:24:41.640Z,4.00
2023-11-23T07:25:45.413Z,4.00
2023-11-23T07:26:48.805Z,4.00
2023-11-23T07:27:51.622Z,4.00
2023-11-23T07:28:54.784Z,4.00
2023-11-23T07:29:57.532Z,4.00
2023-11-23T07:31:02.424Z,4.00
2023-11-23T07:32:05.780Z,4.00
2023-11-23T07:33:11.489Z,3.50
2023-11-23T07:34:14.255Z,3.00
2023-11-23T07:35:17.008Z,3.00
2023-11-23T07:36:19.947Z,3.00
2023-11-23T07:37:22.755Z,3.00
2023-11-23T07:38:25.498Z,3.00
2023-11-23T07:39:28.249Z,3.00
2023-11-23T07:40:31.993Z,3.00
2023-11-23T07:41:34.944Z,3.00
2023-11-23T07:42:38.270Z,3.00
2023-11-23T07:43:41.280Z,3.00
2023-11-23T07:44:44.927Z,3.00
2023-11-23T07:45:47.650Z,3.00
2023-11-23T07:46:50.425Z,3.00
2023-11-23T07:47:53.400Z,3.00
2023-11-23T07:48:56.279Z,3.00
2023-11-23T07:50:00.873Z,3.00
2023-11-23T07:51:03.652Z,3.00
2023-11-23T07:52:06.434Z,3.00
2023-11-23T07:53:09.270Z,3.00
2023-11-23T07:54:12.013Z,3.00
2023-11-23T07:55:18.972Z,3.00
2023-11-23T07:56:22.328Z,3.00
2023-11-23T07:57:25.153Z,3.00
2023-11-23T07:58:27.965Z,3.00
2023-11-23T07:59:31.092Z,3.00
2023-11-23T08:00:38.623Z,3.00
2023-11-23T08:01:41.493Z,3.00
2023-11-23T08:02:44.305Z,3.00
2023-11-23T08:03:47.813Z,3.00
2023-11-23T08:04:51.164Z,3.00
2023-11-23T08:05:54.457Z,2.67
2023-11-23T08:06:57.203Z,2.00
2023-11-23T08:07:59.950Z,2.00
2023-11-23T08:09:02.729Z,2.00
2023-11-23T08:10:13.922Z,2.00
2023-11-23T08:11:16.797Z,2.00
2023-11-23T08:12:19.887Z,2.00
2023-11-23T08:13:22.712Z,2.00
2023-11-23T08:14:25.454Z,2.00
2023-11-23T08:15:29.946Z,2.00
2023-11-23T08:16:33.881Z,2.00
2023-11-23T08:17:37.614Z,2.00
2023-11-23T08:18:47.326Z,2.00
2023-11-23T08:19:52.921Z,2.00
2023-11-23T08:20:55.830Z,2.00
2023-11-23T08:21:58.803Z,2.00
2023-11-23T08:23:01.553Z,2.00
2023-11-23T08:24:04.507Z,2.00
2023-11-23T08:25:07.482Z,2.00
2023-11-23T08:26:12.215Z,2.00
2023-11-23T08:27:15.263Z,2.00
2023-11-23T08:28:18.054Z,2.00
2023-11-23T08:29:21.997Z,2.00
2023-11-23T08:30:24.906Z,2.00
2023-11-23T08:31:29.573Z,2.00
2023-11-23T08:32:32.390Z,2.00
2023-11-23T08:33:35.160Z,2.00
2023-11-23T08:34:39.534Z,2.00
2023-11-23T08:35:44.014Z,2.00
2023-11-23T08:36:47.587Z,2.00
2023-11-23T08:37:50.439Z,2.00
2023-11-23T08:38:53.253Z,2.00
2023-11-23T08:39:57.225Z,2.00
2023-11-23T08:41:01.731Z,2.00
2023-11-23T08:42:04.874Z,2.00
2023-11-23T08:43:09.647Z,2.00
2023-11-23T08:44:12.393Z,2.00
2023-11-23T08:45:15.210Z,1.33
2023-11-23T08:46:18.544Z,1.00
2023-11-23T08:47:21.369Z,1.00
2023-11-23T08:48:24.255Z,1.00
2023-11-23T08:49:27.734Z,1.00
2023-11-23T08:50:30.474Z,1.00
2023-11-23T08:51:33.277Z,1.00
2023-11-23T08:52:36.076Z,1.00
2023-11-23T08:53:38.822Z,1.00
2023-11-23T08:54:41.583Z,1.00
2023-11-23T08:55:46.339Z,1.00
2023-11-23T08:56:49.064Z,1.00
2023-11-23T08:57:54.882Z,1.00
2023-11-23T08:58:57.678Z,1.00
2023-11-23T09:00:02.413Z,1.00
2023-11-23T09:01:06.278Z,1.00
2023-11-23T09:02:17.473Z,1.00
2023-11-23T09:03:23.847Z,1.00
2023-11-23T09:04:33.479Z,1.00
2023-11-23T09:05:43.493Z,1.00
2023-11-23T09:06:46.466Z,1.00
2023-11-23T09:07:51.978Z,1.00
2023-11-23T09:08:55.746Z,1.00
2023-11-23T09:09:58.533Z,1.00
2023-11-23T09:11:01.257Z,1.00
2023-11-23T09:12:04.032Z,1.00
2023-11-23T09:13:06.784Z,1.00
2023-11-23T09:14:10.368Z,1.00
2023-11-23T09:15:14.552Z,1.00
2023-11-23T09:16:17.526Z,1.00
2023-11-23T09:17:20.542Z,1.00
2023-11-23T09:18:23.752Z,1.00
2023-11-23T09:19:26.704Z,1.00
2023-11-23T09:20:29.445Z,1.00
2023-11-23T09:21:32.214Z,1.00
2023-11-23T09:22:36.895Z,1.00
2023-11-23T09:23:39.657Z,1.00
2023-11-23T09:24:42.884Z,1.00
2023-11-23T09:25:45.746Z,1.00
2023-11-23T09:26:48.668Z,1.00
2023-11-23T09:27:51.473Z,1.00
2023-11-23T09:28:54.193Z,1.00
2023-11-23T09:29:57.722Z,1.00
2023-11-23T09:31:00.498Z,1.00
2023-11-23T09:32:04.484Z,1.00
2023-11-23T09:33:11.071Z,1.00
2023-11-23T09:34:14.431Z,1.00
2023-11-23T09:35:17.178Z,1.00
2023-11-23T09:36:20.243Z,1.00
2023-11-23T09:37:23.725Z,1.00
2023-11-23T09:38:26.461Z,1.00
2023-11-23T09:39:29.373Z,1.00
2023-11-23T09:40:32.761Z,1.00
2023-11-23T09:41:41.609Z,1.00
2023-11-23T09:42:44.675Z,1.00
2023-11-23T09:43:51.443Z,1.00
2023-11-23T09:44:58.517Z,1.00
2023-11-23T09:46:03.058Z,1.00
2023-11-23T09:47:07.423Z,1.00
2023-11-23T09:48:12.454Z,1.00
2023-11-23T09:49:16.696Z,1.00
2023-11-23T09:50:20.272Z,1.00
2023-11-23T09:51:24.150Z,1.00
2023-11-23T09:52:29.342Z,1.00
2023-11-23T09:53:33.338Z,1.00
2023-11-23T09:54:36.924Z,1.00
2023-11-23T09:55:39.719Z,1.00
2023-11-23T09:56:42.470Z,1.00
2023-11-23T09:57:46.240Z,1.00
2023-11-23T09:58:49.180Z,1.00
2023-11-23T09:59:51.965Z,1.00
2023-11-23T10:00:54.754Z,1.00
2023-11-23T10:02:05.753Z,1.00
2023-11-23T10:03:09.528Z,1.00
2023-11-23T10:04:13.162Z,1.00
2023-11-23T10:05:17.705Z,1.00
2023-11-23T10:06:20.873Z,1.00
2023-11-23T10:07:25.129Z,1.00
2023-11-23T10:08:29.015Z,1.00
2023-11-23T10:09:34.816Z,1.00
2023-11-23T10:10:39.704Z,1.00
2023-11-23T10:11:42.455Z,1.00
2023-11-23T10:12:46.966Z,1.00
2023-11-23T10:13:49.746Z,1.00
2023-11-23T10:14:55.284Z,1.00
2023-11-23T10:15:58.074Z,1.00
2023-11-23T10:17:00.897Z,1.00
2023-11-23T10:18:03.754Z,1.00
2023-11-23T10:19:06.612Z,1.00
2023-11-23T10:20:13.647Z,1.00
2023-11-23T10:21:16.614Z,1.00
2023-11-23T10:22:19.439Z,1.00
2023-11-23T10:23:22.572Z,1.00
2023-11-23T10:24:25.525Z,1.00
2023-11-23T10:25:33.559Z,1.00
2023-11-23T10:26:36.558Z,1.00
2023-11-23T10:27:39.318Z,1.00
2023-11-23T10:28:42.490Z,1.00
2023-11-23T10:29:45.310Z,1.00
2023-11-23T10:30:48.629Z,1.00
2023-11-23T10:31:52.152Z,1.00
2023-11-23T10:32:56.409Z,1.00
2023-11-23T10:34:00.560Z,1.00
2023-11-23T10:35:10.951Z,1.00
2023-11-23T10:36:15.477Z,1.00
2023-11-23T10:37:18.456Z,1.00
2023-11-23T10:38:35.425Z,1.00
2023-11-23T10:39:45.895Z,1.00
2023-11-23T10:40:49.100Z,1.00
2023-11-23T10:41:54.635Z,1.00
2023-11-23T10:43:01.951Z,1.00
2023-11-23T10:44:05.052Z,1.00
2023-11-23T10:45:09.376Z,1.00
2023-11-23T10:46:12.917Z,1.00
2023-11-23T10:47:17.969Z,1.00
2023-11-23T10:48:25.468Z,1.00
2023-11-23T10:49:28.742Z,1.00
2023-11-23T10:50:33.733Z,1.00
2023-11-23T10:51:36.827Z,1.00
2023-11-23T10:52:43.215Z,1.00
2023-11-23T10:53:46.009Z,1.00
2023-11-23T10:54:49.240Z,1.00
2023-11-23T10:55:52.850Z,1.00
2023-11-23T10:57:00.528Z,1.00
2023-11-23T10:58:09.037Z,1.00
2023-11-23T10:59:21.551Z,1.00
2023-11-23T11:00:28.812Z,1.00
2023-11-23T11:01:32.620Z,1.00
2023-11-23T11:02:35.672Z,1.00
2023-11-23T11:03:40.236Z,1.00
2023-11-23T11:04:43.355Z,1.00
2023-11-23T11:05:51.031Z,1.00
2023-11-23T11:06:56.939Z,1.00
2023-11-23T11:08:08.584Z,1.00
2023-11-23T11:09:18.157Z,1.00
2023-11-23T11:10:20.907Z,1.00
2023-11-23T11:11:25.935Z,1.00
2023-11-23T11:12:38.063Z,1.00
2023-11-23T11:13:44.207Z,1.00
2023-11-23T11:14:55.176Z,1.00
2023-11-23T11:16:01.060Z,1.00
2023-11-23T11:17:06.089Z,1.00
2023-11-23T11:18:11.197Z,1.00
2023-11-23T11:19:15.166Z,1.00
2023-11-23T11:20:23.480Z,1.00
2023-11-23T11:21:27.819Z,1.00
2023-11-23T11:22:32.082Z,1.00
2023-11-23T11:23:53.833Z,1.00
2023-11-23T11:24:59.740Z,1.00
2023-11-23T11:26:28.792Z,1.00
2023-11-23T11:27:35.263Z,1.00
2023-11-23T11:28:41.885Z,1.00
2023-11-23T11:29:52.086Z,1.00
2023-11-23T11:31:05.393Z,1.00
2023-11-23T11:32:09.260Z,1.00
2023-11-23T11:33:15.819Z,1.00
2023-11-23T11:34:21.333Z,1.00
2023-11-23T11:35:27.461Z,1.00
2023-11-23T11:36:32.244Z,1.00
2023-11-23T11:37:35.627Z,1.00
2023-11-23T11:38:40.560Z,1.00
2023-11-23T11:39:45.631Z,1.00
2023-11-23T11:40:50.405Z,1.00
2023-11-23T11:42:00.614Z,1.00
2023-11-23T11:43:09.377Z,1.00
2023-11-23T11:44:14.379Z,1.00
2023-11-23T11:45:18.813Z,1.00
2023-11-23T11:46:22.239Z,1.00
2023-11-23T11:47:27.375Z,1.00
2023-11-23T11:48:30.591Z,1.50
2023-11-23T11:49:33.571Z,2.00
2023-11-23T11:50:36.372Z,2.00
2023-11-23T11:51:39.190Z,2.00
2023-11-23T11:52:42.014Z,2.00
2023-11-23T11:53:45.403Z,2.00
2023-11-23T11:54:48.661Z,2.00
2023-11-23T11:55:54.239Z,2.00
2023-11-23T11:56:56.986Z,2.00
2023-11-23T11:57:59.868Z,2.00
2023-11-23T11:59:05.161Z,2.00
2023-11-23T12:00:08.877Z,2.00
2023-11-23T12:01:14.707Z,2.00
2023-11-23T12:02:17.538Z,2.00
2023-11-23T12:03:21.183Z,2.00
2023-11-23T12:04:25.236Z,2.00
2023-11-23T12:05:29.331Z,2.00
2023-11-23T12:06:32.809Z,2.00
2023-11-23T12:07:35.583Z,2.00
2023-11-23T12:08:38.884Z,2.00
2023-11-23T12:09:46.473Z,2.00
2023-11-23T12:10:50.053Z,2.00
2023-11-23T12:12:06.455Z,2.00
2023-11-23T12:13:16.119Z,2.00
2023-11-23T12:14:20.268Z,2.00
2023-11-23T12:15:23.055Z,2.00
2023-11-23T12:16:36.497Z,2.00
2023-11-23T12:17:48.992Z,2.00
2023-11-23T12:18:51.763Z,2.00
2023-11-23T12:19:57.105Z,2.00
2023-11-23T12:21:00.428Z,2.00
2023-11-23T12:22:04.145Z,2.00
2023-11-23T12:23:09.119Z,2.00
2023-11-23T12:24:18.642Z,2.00
2023-11-23T12:25:21.975Z,2.00
2023-11-23T12:26:25.813Z,2.00
2023-11-23T12:27:28.687Z,2.00
2023-11-23T12:28:32.272Z,2.00
2023-11-23T12:29:35.220Z,2.00
2023-11-23T12:30:38.132Z,2.00
2023-11-23T12:31:41.106Z,2.00
2023-11-23T12:32:43.904Z,2.00
2023-11-23T12:33:46.756Z,1.33
2023-11-23T12:34:49.602Z,1.00
2023-11-23T12:35:52.464Z,1.00
2023-11-23T12:36:59.413Z,1.00
2023-11-23T12:38:02.258Z,1.00
2023-11-23T12:39:05.499Z,1.00
2023-11-23T12:40:11.571Z,1.00
2023-11-23T12:41:14.336Z,1.00
2023-11-23T12:42:17.630Z,1.00
2023-11-23T12:43:23.697Z,1.00
2023-11-23T12:44:26.613Z,1.00
2023-11-23T12:45:29.743Z,1.00
2023-11-23T12:46:32.992Z,1.00
2023-11-23T12:47:38.867Z,1.00
2023-11-23T12:48:41.753Z,1.00
2023-11-23T12:49:44.821Z,1.00
2023-11-23T12:50:49.815Z,1.00
2023-11-23T12:51:53.612Z,1.00
2023-11-23T12:52:56.394Z,1.00
2023-11-23T12:53:59.224Z,1.00
2023-11-23T12:55:02.695Z,1.00
2023-11-23T12:56:05.852Z,1.00
2023-11-23T12:57:10.522Z,1.00
2023-11-23T12:58:14.878Z,1.00
2023-11-23T12:59:18.186Z,1.00
2023-11-23T13:00:23.026Z,1.00
2023-11-23T13:01:25.890Z,1.00
2023-11-23T13:02:28.874Z,1.00
2023-11-23T13:03:31.743Z,1.00
2023-11-23T13:04:36.050Z,1.00
2023-11-23T13:05:39.302Z,1.00
2023-11-23T13:06:43.160Z,1.00
2023-11-23T13:07:46.226Z,1.00
2023-11-23T13:08:49.418Z,1.00
2023-11-23T13:09:52.755Z,1.00
2023-11-23T13:10:55.543Z,1.00
2023-11-23T13:11:59.617Z,1.00
2023-11-23T13:13:02.712Z,1.00
2023-11-23T13:14:07.319Z,1.00
2023-11-23T13:15:13.512Z,1.00
2023-11-23T13:16:18.862Z,1.00
2023-11-23T13:17:21.733Z,1.00
2023-11-23T13:18:38.410Z,1.00
2023-11-23T13:19:49.424Z,1.00
2023-11-23T13:20:52.382Z,1.00
2023-11-23T13:21:55.286Z,1.00
2023-11-23T13:23:00.502Z,1.00
2023-11-23T13:24:05.760Z,1.00
2023-11-23T13:25:12.856Z,1.00
2023-11-23T13:26:15.831Z,1.00
2023-11-23T13:27:18.571Z,1.00
2023-11-23T13:28:22.082Z,1.00
2023-11-23T13:29:24.946Z,1.00
2023-11-23T13:30:32.126Z,1.00
2023-11-23T13:31:36.354Z,1.00
2023-11-23T13:32:41.575Z,1.00
2023-11-23T13:33:45.436Z,1.00
2023-11-23T13:34:50.653Z,1.00
2023-11-23T13:35:54.165Z,1.00
2023-11-23T13:36:56.915Z,1.00
2023-11-23T13:37:59.668Z,1.00
2023-11-23T13:39:03.688Z,1.00
2023-11-23T13:40:08.541Z,1.00
2023-11-23T13:41:11.514Z,1.00
2023-11-23T13:42:15.913Z,1.00
2023-11-23T13:43:19.814Z,1.00
2023-11-23T13:44:22.611Z,1.00
2023-11-23T13:45:25.620Z,1.00
2023-11-23T13:46:28.622Z,1.00
2023-11-23T13:47:31.424Z,1.00
2023-11-23T13:48:34.213Z,1.00
2023-11-23T13:49:36.995Z,1.00
2023-11-23T13:50:43.293Z,1.00
2023-11-23T13:51:46.708Z,1.00
2023-11-23T13:52:50.231Z,1.00
2023-11-23T13:53:52.994Z,1.00
2023-11-23T13:54:55.753Z,1.00
2023-11-23T13:55:58.598Z,1.00
2023-11-23T13:57:01.749Z,1.00
2023-11-23T13:58:06.858Z,1.00
2023-11-23T13:59:09.818Z,1.00
2023-11-23T14:00:16.047Z,1.00
2023-11-23T14:01:19.605Z,1.00
2023-11-23T14:02:22.500Z,1.00
2023-11-23T14:03:27.172Z,1.00
2023-11-23T14:04:30.738Z,1.00
2023-11-23T14:05:33.610Z,1.00
2023-11-23T14:06:36.558Z,1.00
2023-11-23T14:07:39.507Z,1.00
2023-11-23T14:08:42.623Z,1.00
2023-11-23T14:09:45.468Z,1.00